Time;durP1;ratioP1;P1;durP2;ratioP2;P2;SDS_P1;SDS_P2;PMS_P1;PMS_P2;Temp;Humidity;BMP_temperature;BMP_pressure;BME280_temperature;BME280_humidity;BME280_pressure;Samples;Min_cycle;Max_cycle;Signal;HPM_P1;HPM_P2
2021/08/09 00:01:40;;;;;;;15.50;13.80;;;15.90;99.90;;;;;;4975927;28;20241;-83
2021/08/09 00:04:09;;;;;;;16.13;14.53;;;16.10;99.90;;;;;;4968357;28;20205;-84
2021/08/09 00:06:38;;;;;;;15.60;13.97;;;16.10;99.90;;;;;;4970845;28;20223;-84
2021/08/09 00:09:09;;;;;;;17.10;15.33;;;16.10;99.90;;;;;;4967637;28;20200;-83
2021/08/09 00:11:38;;;;;;;16.27;14.50;;;16.10;99.90;;;;;;4970845;28;20215;-84
2021/08/09 00:14:07;;;;;;;15.33;13.90;;;16.10;99.90;;;;;;4975767;28;20204;-84
2021/08/09 00:16:36;;;;;;;15.47;13.97;;;16.10;99.90;;;;;;4974469;28;20622;-84
2021/08/09 00:19:05;;;;;;;15.43;13.83;;;16.00;99.90;;;;;;4983414;28;20193;-83
2021/08/09 00:21:33;;;;;;;14.87;13.37;;;16.00;99.90;;;;;;4989211;28;20232;-83
2021/08/09 00:24:03;;;;;;;15.03;13.63;;;16.00;99.90;;;;;;4986755;28;20208;-83
2021/08/09 00:26:34;;;;;;;16.13;14.33;;;16.00;99.90;;;;;;4997704;28;20315;-84
2021/08/09 00:29:06;;;;;;;16.03;14.50;;;16.10;99.90;;;;;;4968955;28;21142;-86
2021/08/09 00:31:35;;;;;;;16.70;15.00;;;16.10;99.90;;;;;;4992044;28;20190;-84
2021/08/09 00:34:04;;;;;;;16.73;15.13;;;16.10;99.90;;;;;;4988152;28;20208;-86
2021/08/09 00:36:33;;;;;;;17.77;15.87;;;16.10;99.90;;;;;;4971874;28;20909;-85
2021/08/09 00:39:03;;;;;;;16.93;15.20;;;16.10;99.90;;;;;;4966937;28;20209;-84
2021/08/09 00:41:33;;;;;;;17.13;15.30;;;16.10;99.90;;;;;;4965286;28;20475;-83
2021/08/09 00:44:03;;;;;;;17.43;15.63;;;16.10;99.90;;;;;;4969592;28;20197;-84
2021/08/09 00:46:32;;;;;;;18.00;16.07;;;16.10;99.90;;;;;;4972979;28;20268;-85
2021/08/09 00:49:05;;;;;;;20.00;16.13;;;16.20;99.90;;;;;;4987488;28;20700;-84
2021/08/09 00:51:40;;;;;;;17.80;15.90;;;16.20;99.90;;;;;;4980969;28;20210;-84
2021/08/09 00:54:10;;;;;;;18.37;16.47;;;16.20;99.90;;;;;;4974107;28;20204;-83
2021/08/09 00:56:53;;;;;;;17.20;15.50;;;16.20;99.90;;;;;;4978700;28;20196;-86
2021/08/09 00:59:22;;;;;;;17.83;15.93;;;16.20;99.90;;;;;;4969094;28;20204;-85
2021/08/09 01:01:51;;;;;;;18.67;16.50;;;16.30;99.90;;;;;;4995604;28;20229;-84
2021/08/09 01:04:20;;;;;;;17.67;16.03;;;16.30;99.90;;;;;;4983796;28;20307;-86
2021/08/09 01:06:50;;;;;;;17.33;15.53;;;16.30;99.90;;;;;;4977479;28;20208;-86
2021/08/09 01:09:23;;;;;;;17.17;15.57;;;16.30;99.90;;;;;;4963520;28;20272;-85
2021/08/09 01:11:58;;;;;;;19.20;15.70;;;16.40;99.90;;;;;;4970979;28;20200;-84
2021/08/09 01:14:38;;;;;;;17.60;15.80;;;16.40;99.90;;;;;;4983765;28;20222;-85
2021/08/09 01:17:10;;;;;;;17.47;15.60;;;16.40;99.90;;;;;;4978506;28;20212;-84
2021/08/09 01:19:55;;;;;;;18.33;16.43;;;16.40;99.90;;;;;;4979834;28;20236;-83
2021/08/09 01:22:35;;;;;;;18.40;16.50;;;16.40;99.90;;;;;;4975333;28;20282;-84
2021/08/09 01:25:14;;;;;;;18.00;16.30;;;16.40;99.90;;;;;;4946539;28;20331;-84
2021/08/09 01:27:50;;;;;;;17.77;16.00;;;16.40;99.90;;;;;;4968155;28;20200;-85
2021/08/09 01:30:22;;;;;;;18.17;15.97;;;16.40;99.90;;;;;;4969818;28;20204;-85
2021/08/09 01:32:53;;;;;;;18.40;16.60;;;16.40;99.90;;;;;;4963208;28;21542;-85
2021/08/09 01:35:25;;;;;;;18.27;16.30;;;16.40;99.90;;;;;;4965341;28;20289;-83
2021/08/09 01:37:57;;;;;;;18.33;16.47;;;16.50;99.90;;;;;;4962638;28;21011;-84
2021/08/09 01:40:28;;;;;;;17.37;15.67;;;16.40;99.90;;;;;;4963194;28;20291;-86
2021/08/09 01:43:00;;;;;;;16.77;15.17;;;16.50;99.90;;;;;;4947088;28;20236;-85
2021/08/09 01:45:31;;;;;;;17.33;15.33;;;16.40;99.90;;;;;;4969219;28;20193;-83
2021/08/09 01:48:02;;;;;;;16.53;14.93;;;16.40;99.90;;;;;;4959084;28;20215;-84
2021/08/09 01:50:31;;;;;;;17.60;15.60;;;16.50;99.90;;;;;;4967908;28;20770;-83
2021/08/09 01:53:00;;;;;;;16.67;14.97;;;16.50;99.90;;;;;;4959584;28;20223;-84
2021/08/09 01:55:34;;;;;;;16.87;15.17;;;16.50;99.90;;;;;;4944876;28;20213;-82
2021/08/09 01:58:31;;;;;;;18.20;15.80;;;16.50;99.90;;;;;;4967181;28;20775;-84
2021/08/09 02:01:01;;;;;;;16.93;15.30;;;16.60;99.90;;;;;;4954220;28;20220;-84
2021/08/09 02:03:29;;;;;;;16.50;14.80;;;16.60;99.90;;;;;;4987187;28;20236;-84
2021/08/09 02:05:58;;;;;;;16.23;14.63;;;16.70;99.90;;;;;;4966809;28;20228;-83
2021/08/09 02:08:28;;;;;;;16.00;14.33;;;16.80;99.90;;;;;;4965744;28;20664;-83
2021/08/09 02:11:03;;;;;;;15.47;13.87;;;16.80;99.90;;;;;;4944318;28;20830;-85
2021/08/09 02:14:01;;;;;;;15.17;13.60;;;16.90;99.90;;;;;;4973115;28;20264;-83
2021/08/09 05:11:33;;;;;;;7.37;6.50;;;18.00;99.90;;;;;;5039402;23;20270;-87
2021/08/09 05:14:31;;;;;;;10.33;6.70;;;18.20;99.90;;;;;;4997346;28;20201;-84
2021/08/09 05:17:57;;;;;;;7.90;7.10;;;18.40;99.90;;;;;;4983533;28;20215;-85
2021/08/09 05:20:26;;;;;;;7.10;6.40;;;18.50;99.90;;;;;;4988014;28;20802;-83
2021/08/09 05:23:07;;;;;;;7.53;6.70;;;18.50;99.90;;;;;;4977106;28;21576;-86
2021/08/09 05:26:04;;;;;;;8.50;6.80;;;18.50;99.90;;;;;;4976131;28;20241;-86
2021/08/09 05:28:44;;;;;;;6.97;6.33;;;18.60;99.90;;;;;;4977025;28;20204;-84
2021/08/09 05:31:13;;;;;;;6.93;6.30;;;18.60;99.90;;;;;;4972712;28;20207;-84
2021/08/09 05:33:47;;;;;;;7.20;6.50;;;18.60;99.90;;;;;;4974245;28;21339;-84
2021/08/09 05:36:27;;;;;;;7.77;6.37;;;18.60;99.90;;;;;;4974975;28;20218;-85
2021/08/09 05:38:56;;;;;;;8.37;6.40;;;18.70;99.90;;;;;;4970853;28;20232;-84
2021/08/09 05:41:26;;;;;;;7.07;6.47;;;18.70;99.90;;;;;;4977075;28;20812;-86
2021/08/09 05:44:01;;;;;;;6.67;5.97;;;18.80;99.90;;;;;;4969661;28;20234;-85
2021/08/09 05:46:31;;;;;;;8.50;6.40;;;18.90;99.90;;;;;;4967157;28;20208;-84
2021/08/09 05:49:01;;;;;;;6.67;6.00;;;19.00;99.90;;;;;;4967014;28;20454;-85
2021/08/09 05:51:30;;;;;;;6.80;6.10;;;19.10;98.80;;;;;;4967355;28;20211;-87
2021/08/09 05:54:28;;;;;;;8.60;6.33;;;19.20;98.50;;;;;;4960952;28;20210;-85
2021/08/09 05:57:07;;;;;;;8.17;6.27;;;19.30;98.60;;;;;;4961615;28;20539;-86
2021/08/09 05:59:59;;;;;;;7.23;6.27;;;19.40;96.70;;;;;;4946495;28;20212;-84
2021/08/09 06:02:28;;;;;;;6.03;5.33;;;19.60;96.90;;;;;;4973931;28;20857;-85
2021/08/09 06:05:22;;;;;;;5.93;5.33;;;19.60;95.50;;;;;;4970924;28;20209;-86
2021/08/09 06:23:47;;;;;;;6.87;5.50;;;20.20;93.60;;;;;;4821113;29;20252;-84
2021/08/09 06:31:28;;;;;;;6.20;5.10;;;20.30;93.00;;;;;;4763623;29;20226;-84
2021/08/09 09:59:19;;;;;;;2.80;2.60;;;23.90;79.60;;;;;;5020803;23;20298;-85
2021/08/09 10:01:52;;;;;;;2.83;2.47;;;23.60;79.10;;;;;;4985286;28;20931;-86
2021/08/09 10:04:21;;;;;;;3.08;2.70;;;23.50;79.40;;;;;;4990144;28;20408;-86
2021/08/09 10:06:53;;;;;;;3.05;2.72;;;23.40;79.60;;;;;;4985978;28;20197;-84
2021/08/09 10:09:27;;;;;;;3.50;2.35;;;23.30;79.60;;;;;;4984598;28;20200;-84
2021/08/09 10:11:56;;;;;;;2.95;2.65;;;23.30;80.40;;;;;;4992705;28;20207;-87
2021/08/09 10:14:27;;;;;;;3.58;2.35;;;23.30;79.90;;;;;;4980854;28;20255;-85
2021/08/09 10:17:00;;;;;;;3.60;2.63;;;23.40;79.70;;;;;;4979376;28;20239;-86
2021/08/09 10:19:33;;;;;;;3.30;2.90;;;23.40;79.90;;;;;;4980283;28;20699;-84
2021/08/09 10:22:03;;;;;;;3.67;2.60;;;23.30;79.30;;;;;;4973340;28;20212;-86
2021/08/09 10:24:39;;;;;;;2.92;2.63;;;23.40;79.20;;;;;;4966398;28;20235;-86
2021/08/09 10:27:15;;;;;;;3.60;2.70;;;23.40;79.70;;;;;;4959430;28;20200;-86
2021/08/09 10:30:15;;;;;;;3.10;2.80;;;23.40;79.80;;;;;;4971170;28;20280;-85
2021/08/09 10:32:46;;;;;;;2.63;2.33;;;23.50;80.10;;;;;;4972471;28;20204;-84
2021/08/09 10:36:05;;;;;;;3.83;2.60;;;23.60;80.40;;;;;;4967057;28;20291;-85
2021/08/09 10:38:44;;;;;;;2.72;2.53;;;23.70;79.90;;;;;;4970168;28;21091;-85
2021/08/09 10:41:29;;;;;;;2.72;2.45;;;23.70;80.20;;;;;;4977472;28;21447;-86
2021/08/09 10:44:26;;;;;;;2.70;2.50;;;23.80;79.70;;;;;;4984133;28;20520;-87
2021/08/09 10:46:58;;;;;;;2.47;2.28;;;23.80;78.60;;;;;;4975929;28;20205;-86
2021/08/09 10:49:58;;;;;;;3.72;2.50;;;23.80;78.60;;;;;;4973328;28;21272;-86
2021/08/09 10:52:45;;;;;;;2.10;1.90;;;23.90;77.70;;;;;;4984009;28;20511;-85
2021/08/09 10:56:04;;;;;;;2.72;2.53;;;23.90;77.60;;;;;;4975657;28;20215;-86
2021/08/09 10:58:57;;;;;;;2.67;2.47;;;23.90;78.30;;;;;;4935436;28;20831;-87
2021/08/09 11:01:27;;;;;;;2.33;2.22;;;24.00;77.80;;;;;;4979798;28;20200;-85
2021/08/09 11:04:19;;;;;;;2.63;2.30;;;23.90;77.70;;;;;;4970044;28;20995;-85
2021/08/09 11:06:53;;;;;;;2.55;2.35;;;23.90;77.60;;;;;;4972964;28;20219;-86
2021/08/09 11:09:45;;;;;;;3.15;2.63;;;23.90;77.80;;;;;;4988356;28;20207;-83
2021/08/09 11:12:20;;;;;;;2.42;2.22;;;23.80;77.50;;;;;;4991146;28;20200;-84
2021/08/09 11:15:18;;;;;;;2.60;2.40;;;23.90;77.70;;;;;;4985169;28;20203;-84
2021/08/09 11:21:13;;;;;;;2.83;2.60;;;24.40;78.40;;;;;;4955819;28;20216;-86
2021/08/09 11:23:46;;;;;;;2.47;2.38;;;24.70;77.10;;;;;;4977858;28;20223;-85
2021/08/09 11:26:26;;;;;;;2.90;2.45;;;24.80;76.60;;;;;;4957321;28;20195;-86
2021/08/09 11:29:06;;;;;;;4.70;2.47;;;24.50;76.60;;;;;;4953702;28;20307;-85
2021/08/09 11:31:55;;;;;;;2.45;2.25;;;24.30;76.40;;;;;;4965911;28;20290;-84
2021/08/09 11:34:25;;;;;;;3.10;2.28;;;24.30;77.00;;;;;;4950125;28;20223;-84
2021/08/09 11:37:05;;;;;;;3.83;2.47;;;24.30;76.20;;;;;;4968786;28;20304;-87
2021/08/09 11:39:41;;;;;;;2.35;2.15;;;24.30;75.80;;;;;;4978267;28;20215;-85
2021/08/09 11:42:10;;;;;;;3.10;2.20;;;24.40;76.10;;;;;;4980446;28;20204;-85
2021/08/09 11:44:47;;;;;;;2.10;1.92;;;24.40;75.70;;;;;;4986104;28;20208;-86
2021/08/09 11:47:24;;;;;;;2.50;2.03;;;24.40;74.80;;;;;;4984531;28;20321;-87
2021/08/09 11:49:59;;;;;;;2.92;2.20;;;24.30;75.00;;;;;;4974404;28;20816;-86
2021/08/09 11:52:30;;;;;;;3.17;2.35;;;24.30;75.40;;;;;;4981448;28;20210;-84
2021/08/09 11:54:59;;;;;;;3.38;2.03;;;24.20;74.70;;;;;;4967525;28;20348;-87
2021/08/09 11:57:40;;;;;;;2.30;2.10;;;24.20;74.60;;;;;;4973560;28;20223;-85
2021/08/09 12:00:39;;;;;;;3.50;2.42;;;24.20;75.10;;;;;;4956475;28;20296;-85
2021/08/09 12:03:11;;;;;;;2.55;2.35;;;24.20;74.70;;;;;;4981013;28;20615;-84
2021/08/09 12:05:41;;;;;;;2.72;2.20;;;24.30;74.70;;;;;;4973308;28;20227;-85
2021/08/09 12:08:11;;;;;;;4.07;2.33;;;24.30;74.90;;;;;;4964190;28;20271;-86
2021/08/09 12:10:41;;;;;;;4.47;2.60;;;24.40;74.30;;;;;;4976256;28;20216;-86
2021/08/09 12:13:29;;;;;;;2.20;2.00;;;24.50;74.40;;;;;;4968795;28;20212;-85
2021/08/09 12:16:15;;;;;;;4.80;2.13;;;24.70;74.10;;;;;;4964405;28;20302;-85
2021/08/09 12:18:56;;;;;;;3.22;2.03;;;25.00;74.00;;;;;;4953231;28;20208;-83
2021/08/09 12:21:34;;;;;;;2.83;2.28;;;25.20;73.30;;;;;;4955618;28;21202;-86
2021/08/09 12:24:20;;;;;;;2.97;2.05;;;25.20;73.20;;;;;;4954376;28;20251;-86
2021/08/09 12:26:53;;;;;;;4.07;1.80;;;25.20;72.50;;;;;;4953525;28;20212;-86
2021/08/09 12:29:26;;;;;;;2.67;1.92;;;25.20;72.20;;;;;;4953869;28;20254;-86
2021/08/09 12:31:58;;;;;;;2.35;1.90;;;25.10;71.50;;;;;;4941604;28;20216;-84
2021/08/09 12:34:27;;;;;;;2.72;1.90;;;25.10;71.20;;;;;;4961468;28;20211;-87
2021/08/09 12:37:15;;;;;;;2.05;1.80;;;25.00;70.80;;;;;;4963416;28;20503;-86
2021/08/09 12:39:46;;;;;;;2.25;2.05;;;25.10;70.90;;;;;;4970743;28;20202;-85
2021/08/09 12:42:17;;;;;;;3.83;2.00;;;25.30;71.60;;;;;;4956935;28;20643;-83
2021/08/09 12:44:50;;;;;;;2.38;1.70;;;25.50;70.30;;;;;;4970867;28;20282;-83
2021/08/09 12:47:26;;;;;;;2.70;2.03;;;25.70;70.10;;;;;;4970212;28;20236;-85
2021/08/09 12:50:08;;;;;;;2.22;2.03;;;25.80;69.90;;;;;;4964307;28;20207;-85
2021/08/09 12:52:45;;;;;;;2.42;1.90;;;25.70;69.80;;;;;;4958513;28;20234;-85
2021/08/09 12:55:18;;;;;;;1.95;1.85;;;25.50;70.00;;;;;;4959082;28;20204;-85
2021/08/09 12:57:52;;;;;;;2.08;1.85;;;25.60;70.90;;;;;;4956080;28;20204;-84
2021/08/09 13:00:25;;;;;;;2.72;1.95;;;25.70;69.90;;;;;;4953207;28;20805;-85
2021/08/09 13:03:01;;;;;;;2.10;1.90;;;25.90;71.00;;;;;;4959790;28;20776;-84
2021/08/09 13:05:32;;;;;;;2.58;1.40;;;26.10;71.00;;;;;;4957415;28;20389;-84
2021/08/09 13:08:06;;;;;;;1.85;1.55;;;26.20;66.30;;;;;;4957280;28;20218;-84
2021/08/09 13:10:36;;;;;;;1.55;1.45;;;26.00;65.40;;;;;;4960600;28;20212;-86
2021/08/09 13:13:09;;;;;;;1.70;1.45;;;26.00;64.50;;;;;;4966264;28;20323;-84
2021/08/09 13:15:43;;;;;;;2.55;1.58;;;25.90;63.90;;;;;;4963520;28;20231;-85
2021/08/09 13:18:20;;;;;;;2.35;1.83;;;26.00;64.40;;;;;;4968009;28;20204;-85
2021/08/09 13:20:53;;;;;;;2.00;1.60;;;26.20;64.10;;;;;;4973784;28;20865;-86
2021/08/09 13:23:48;;;;;;;2.38;1.48;;;26.10;65.30;;;;;;4985327;28;20628;-85
2021/08/09 13:26:39;;;;;;;1.70;1.60;;;26.30;63.20;;;;;;4979209;28;20219;-86
2021/08/09 13:29:34;;;;;;;1.88;1.67;;;26.20;63.40;;;;;;4969476;28;20282;-83
2021/08/09 13:32:28;;;;;;;2.20;1.58;;;25.90;64.00;;;;;;4965887;28;20692;-87
2021/08/09 13:35:20;;;;;;;2.13;1.98;;;25.70;65.40;;;;;;4960589;28;20215;-86
2021/08/09 13:38:07;;;;;;;4.35;1.70;;;25.40;64.50;;;;;;4967787;28;20615;-83
2021/08/09 13:40:54;;;;;;;2.28;1.70;;;25.10;64.10;;;;;;4974216;28;20215;-85
2021/08/09 13:43:43;;;;;;;2.10;1.80;;;25.20;66.40;;;;;;4996013;28;20248;-84
2021/08/09 13:46:37;;;;;;;2.22;1.58;;;25.50;65.10;;;;;;4985886;28;20247;-87
2021/08/09 13:49:23;;;;;;;1.80;1.70;;;26.00;65.70;;;;;;4979096;28;20444;-86
2021/08/09 13:52:12;;;;;;;1.90;1.50;;;26.30;63.70;;;;;;4972137;28;20227;-85
2021/08/09 13:54:56;;;;;;;2.50;1.63;;;26.40;63.10;;;;;;4971811;28;20222;-84
2021/08/09 13:57:43;;;;;;;2.17;1.83;;;26.40;63.40;;;;;;4966056;28;20223;-85
2021/08/09 14:00:25;;;;;;;1.77;1.67;;;26.60;64.70;;;;;;4970752;28;20217;-85
2021/08/09 14:03:05;;;;;;;1.70;1.60;;;26.80;63.40;;;;;;4973874;28;20250;-83
2021/08/09 14:05:45;;;;;;;2.28;1.60;;;27.10;64.20;;;;;;4908573;28;20710;-85
2021/08/09 14:08:14;;;;;;;2.22;1.58;;;27.30;62.20;;;;;;4975948;28;20231;-84
2021/08/09 14:10:44;;;;;;;2.22;1.70;;;27.20;62.00;;;;;;4977700;28;20196;-84
2021/08/09 14:13:22;;;;;;;2.10;1.73;;;27.40;61.50;;;;;;4957533;28;20203;-85
2021/08/09 14:15:55;;;;;;;1.63;1.48;;;27.70;60.80;;;;;;4975219;28;20212;-87
2021/08/09 14:18:44;;;;;;;2.22;2.03;;;27.70;60.20;;;;;;4974032;28;20250;-85
2021/08/09 14:21:13;;;;;;;2.53;1.70;;;27.40;60.80;;;;;;4976657;28;20627;-85
2021/08/09 14:23:45;;;;;;;2.25;1.50;;;27.50;62.20;;;;;;4978303;28;20239;-85
2021/08/09 14:26:14;;;;;;;2.20;1.50;;;28.70;62.00;;;;;;4982442;28;20326;-85
2021/08/09 14:28:43;;;;;;;2.17;1.30;;;30.00;58.80;;;;;;4974214;28;20910;-84
2021/08/09 14:31:22;;;;;;;2.00;1.50;;;30.80;57.20;;;;;;4981265;28;20200;-83
2021/08/09 14:33:52;;;;;;;1.58;1.40;;;31.70;54.70;;;;;;4985395;28;20223;-86
2021/08/09 14:36:23;;;;;;;1.40;1.30;;;31.90;53.60;;;;;;5004811;28;20184;-85
2021/08/09 14:38:58;;;;;;;1.45;1.27;;;32.20;53.30;;;;;;5000636;28;20214;-84
2021/08/09 14:41:29;;;;;;;1.45;1.30;;;32.00;51.00;;;;;;4997712;28;20187;-85
2021/08/09 14:43:58;;;;;;;1.33;1.23;;;32.00;51.10;;;;;;4978899;28;20212;-84
2021/08/09 14:46:29;;;;;;;1.75;1.40;;;32.40;53.10;;;;;;4977531;28;20239;-85
2021/08/09 14:48:59;;;;;;;4.40;1.27;;;33.30;51.80;;;;;;4985179;28;20426;-83
2021/08/09 14:51:31;;;;;;;1.13;1.13;;;33.60;52.50;;;;;;4978848;28;20218;-84
2021/08/09 14:54:00;;;;;;;2.00;1.30;;;33.90;50.20;;;;;;4980385;28;20204;-84
2021/08/09 14:56:29;;;;;;;1.45;1.35;;;33.90;50.80;;;;;;4975125;28;20232;-84
2021/08/09 14:58:58;;;;;;;1.45;1.30;;;33.40;49.00;;;;;;4975754;28;20212;-83
2021/08/09 15:01:30;;;;;;;1.10;1.10;;;33.60;48.20;;;;;;4979524;28;20216;-84
2021/08/09 15:03:59;;;;;;;1.52;1.25;;;33.10;47.30;;;;;;4982854;28;20618;-84
2021/08/09 15:06:28;;;;;;;2.03;1.60;;;32.90;47.90;;;;;;4981684;28;20232;-85
2021/08/09 15:08:57;;;;;;;2.33;1.20;;;33.00;48.30;;;;;;4981330;28;20311;-85
2021/08/09 15:11:25;;;;;;;1.77;1.42;;;33.60;49.70;;;;;;4979670;28;20573;-85
2021/08/09 15:13:54;;;;;;;1.30;1.20;;;34.20;47.40;;;;;;4987337;28;20274;-85
2021/08/09 15:16:24;;;;;;;1.33;1.23;;;34.30;47.50;;;;;;4977183;28;20199;-86
2021/08/09 15:18:55;;;;;;;1.15;1.10;;;33.60;47.20;;;;;;4979307;28;20558;-84
2021/08/09 15:21:24;;;;;;;1.95;1.17;;;33.30;48.20;;;;;;4980887;28;20204;-84
2021/08/09 15:23:53;;;;;;;1.17;1.15;;;33.40;47.50;;;;;;4982613;28;20254;-83
2021/08/09 15:26:22;;;;;;;1.42;1.02;;;33.20;48.60;;;;;;4988310;28;20231;-84
2021/08/09 15:28:54;;;;;;;1.23;1.13;;;33.70;46.70;;;;;;4970269;28;20631;-84
2021/08/09 15:31:28;;;;;;;2.42;1.23;;;33.40;45.40;;;;;;4984219;28;20218;-84
2021/08/09 15:34:05;;;;;;;1.20;1.10;;;33.10;45.50;;;;;;4984833;28;22599;-84
2021/08/09 15:36:34;;;;;;;2.88;1.33;;;32.90;45.60;;;;;;4987230;28;20581;-84
2021/08/09 15:39:03;;;;;;;1.23;1.08;;;32.90;46.30;;;;;;4995866;28;20300;-84
2021/08/09 15:41:32;;;;;;;1.23;1.13;;;32.90;46.50;;;;;;4996212;28;20299;-84
2021/08/09 15:47:45;;;;;;;1.27;1.10;;;33.40;46.00;;;;;;4991057;28;20218;-83
2021/08/09 15:50:17;;;;;;;2.53;1.50;;;33.70;45.90;;;;;;4990325;28;20208;-87
2021/08/09 15:52:46;;;;;;;1.13;1.00;;;34.00;45.80;;;;;;4990079;28;20201;-85
2021/08/09 15:55:18;;;;;;;1.92;1.30;;;33.90;44.70;;;;;;4990207;28;20693;-85
2021/08/09 15:57:47;;;;;;;2.90;1.10;;;33.30;45.70;;;;;;4991150;28;20612;-85
2021/08/09 16:00:20;;;;;;;1.10;1.00;;;32.80;43.90;;;;;;4988374;28;20895;-87
2021/08/09 16:02:49;;;;;;;1.42;1.17;;;32.60;44.80;;;;;;4989367;28;20664;-85
2021/08/09 16:05:21;;;;;;;1.02;0.98;;;32.70;44.00;;;;;;4984805;28;20208;-85
2021/08/09 16:07:51;;;;;;;1.77;1.27;;;33.20;45.90;;;;;;4989011;28;20239;-82
2021/08/09 16:10:20;;;;;;;1.30;1.13;;;33.50;45.20;;;;;;4995800;28;21193;-83
2021/08/09 16:12:49;;;;;;;1.40;1.13;;;33.20;45.50;;;;;;4998203;28;20211;-85
2021/08/09 16:15:21;;;;;;;2.53;1.10;;;32.20;45.70;;;;;;5003678;28;20716;-86
2021/08/09 16:17:51;;;;;;;1.40;1.17;;;31.00;44.20;;;;;;4996030;28;20208;-85
2021/08/09 16:20:36;;;;;;;1.88;1.10;;;29.90;45.00;;;;;;5000911;28;20772;-85
2021/08/09 16:23:05;;;;;;;2.65;1.27;;;28.50;45.60;;;;;;4994194;28;20211;-85
2021/08/09 16:26:13;;;;;;;1.50;1.30;;;27.50;45.90;;;;;;4990728;28;20231;-83
2021/08/09 16:28:48;;;;;;;2.13;1.30;;;26.60;45.20;;;;;;4984815;28;20204;-84
2021/08/09 16:31:27;;;;;;;1.73;1.35;;;25.90;45.90;;;;;;5001719;28;20207;-84
2021/08/09 16:33:56;;;;;;;1.58;1.40;;;25.40;46.80;;;;;;4980027;28;20216;-83
2021/08/09 16:36:28;;;;;;;1.40;1.30;;;25.00;47.00;;;;;;4988134;28;20262;-85
2021/08/09 16:38:58;;;;;;;1.50;1.25;;;24.70;49.20;;;;;;4982011;28;20220;-84
2021/08/09 16:41:28;;;;;;;1.50;1.13;;;24.40;49.00;;;;;;4982532;28;20204;-85
2021/08/09 16:44:01;;;;;;;3.20;1.73;;;24.20;49.80;;;;;;4980090;28;20204;-84
2021/08/09 16:46:31;;;;;;;1.58;1.48;;;24.00;49.40;;;;;;4981797;28;20777;-84
2021/08/09 16:49:01;;;;;;;1.63;1.40;;;23.90;48.70;;;;;;4976137;28;20211;-85
2021/08/09 16:51:34;;;;;;;1.48;1.35;;;23.80;49.90;;;;;;4984799;28;20536;-84
2021/08/09 16:54:05;;;;;;;1.55;1.45;;;23.60;51.40;;;;;;4963036;28;20215;-83
2021/08/09 16:56:36;;;;;;;1.40;1.30;;;23.50;51.20;;;;;;4981086;28;20212;-87
2021/08/09 16:59:18;;;;;;;2.38;1.40;;;23.30;51.30;;;;;;4980981;28;20214;-85
2021/08/09 17:02:01;;;;;;;1.40;1.30;;;23.30;50.70;;;;;;4979200;28;20378;-85
2021/08/09 17:04:33;;;;;;;1.45;1.35;;;23.20;50.80;;;;;;4982105;28;20212;-83
2021/08/09 17:07:05;;;;;;;2.03;1.60;;;23.20;51.30;;;;;;4978151;28;20247;-85
2021/08/09 17:09:35;;;;;;;1.75;1.30;;;23.10;52.30;;;;;;4990664;28;20208;-84
2021/08/09 17:12:05;;;;;;;2.25;1.40;;;23.00;51.80;;;;;;4986736;28;20270;-86
2021/08/09 17:14:35;;;;;;;1.77;1.38;;;22.90;53.60;;;;;;4982365;28;20688;-83
2021/08/09 17:17:07;;;;;;;1.67;1.58;;;22.90;53.30;;;;;;4981406;28;20203;-85
2021/08/09 17:19:36;;;;;;;3.80;1.50;;;22.80;53.90;;;;;;4983303;28;20319;-85
2021/08/09 17:22:10;;;;;;;1.75;1.50;;;22.70;58.50;;;;;;4988166;28;20223;-86
2021/08/09 17:24:41;;;;;;;2.33;1.50;;;22.50;59.70;;;;;;5008986;28;20207;-85
2021/08/09 17:27:12;;;;;;;2.72;1.90;;;22.40;60.10;;;;;;5007350;28;20926;-85
2021/08/09 17:38:36;;;;;;;3.88;1.70;;;22.30;59.60;;;;;;4981336;28;20247;-85
2021/08/09 17:41:09;;;;;;;2.70;1.60;;;22.20;59.60;;;;;;4979617;28;20203;-86
2021/08/09 17:43:39;;;;;;;1.42;1.33;;;22.00;59.70;;;;;;5000166;28;20214;-85
2021/08/09 17:47:05;;;;;;;1.65;1.50;;;21.90;58.10;;;;;;4970480;28;20235;-85
2021/08/09 17:49:47;;;;;;;1.60;1.50;;;21.90;59.40;;;;;;4979820;28;20275;-84
2021/08/09 17:52:18;;;;;;;2.77;1.63;;;21.80;62.40;;;;;;4998401;28;20204;-85
2021/08/09 17:54:49;;;;;;;5.40;1.80;;;21.60;64.40;;;;;;4992718;28;20252;-85
2021/08/09 17:57:19;;;;;;;2.93;1.67;;;21.50;65.30;;;;;;4985228;28;20215;-86
2021/08/09 17:59:48;;;;;;;1.63;1.43;;;21.30;65.80;;;;;;5004445;28;20208;-83
2021/08/09 18:02:18;;;;;;;2.97;1.50;;;21.10;66.60;;;;;;4970555;28;20212;-86
2021/08/09 18:04:48;;;;;;;1.70;1.60;;;20.90;68.60;;;;;;4984231;28;20232;-85
2021/08/09 18:07:17;;;;;;;1.73;1.40;;;20.70;71.20;;;;;;4983548;28;20773;-85
2021/08/09 18:09:46;;;;;;;2.00;1.53;;;20.40;71.80;;;;;;4988117;28;20203;-86
2021/08/09 18:12:18;;;;;;;3.67;3.30;;;20.20;72.50;;;;;;4990235;28;20709;-84
2021/08/09 18:14:49;;;;;;;3.00;2.20;;;20.00;74.60;;;;;;4997756;28;20184;-87
2021/08/09 18:17:19;;;;;;;2.00;1.90;;;19.90;77.40;;;;;;5002503;28;20423;-85
2021/08/09 18:19:58;;;;;;;3.20;2.07;;;19.70;79.80;;;;;;5000516;28;20181;-84
2021/08/09 18:22:29;;;;;;;2.70;2.00;;;19.50;81.30;;;;;;4980327;28;20208;-85
2021/08/09 18:25:05;;;;;;;2.70;1.70;;;19.40;82.20;;;;;;4983265;28;21198;-84
2021/08/09 18:27:37;;;;;;;3.93;1.80;;;19.30;81.50;;;;;;4987886;28;20232;-83
2021/08/09 18:30:09;;;;;;;2.30;1.83;;;19.10;82.60;;;;;;4994019;28;20240;-84
2021/08/09 18:32:40;;;;;;;3.07;1.80;;;19.00;83.40;;;;;;4993685;28;20204;-83
2021/08/09 18:35:12;;;;;;;2.00;1.80;;;18.90;83.40;;;;;;4974884;28;20844;-84
2021/08/09 18:37:46;;;;;;;3.07;1.80;;;18.70;84.00;;;;;;4991369;28;20193;-83
2021/08/09 18:40:23;;;;;;;3.33;2.20;;;18.60;84.60;;;;;;5001064;28;20196;-84
2021/08/09 18:43:01;;;;;;;2.60;2.40;;;18.50;84.90;;;;;;5006285;28;20230;-85
2021/08/09 18:56:28;;;;;;;2.63;2.03;;;18.40;85.00;;;;;;6242938;22;1379449;-87
2021/08/09 18:59:02;;;;;;;3.80;2.30;;;18.10;87.00;;;;;;6313713;22;20167;-84
2021/08/09 19:01:47;;;;;;;5.90;2.37;;;18.00;87.10;;;;;;6298406;22;20262;-86
2021/08/09 19:04:20;;;;;;;2.70;2.47;;;17.90;87.80;;;;;;6263586;22;20234;-84
2021/08/09 19:06:51;;;;;;;3.53;2.30;;;17.80;87.70;;;;;;6263819;22;20188;-84
2021/08/09 19:09:23;;;;;;;2.63;2.20;;;17.80;88.70;;;;;;6304292;22;20204;-84
2021/08/09 19:11:55;;;;;;;4.33;2.80;;;17.70;89.20;;;;;;6310568;22;20232;-85
2021/08/09 19:14:24;;;;;;;3.73;2.53;;;17.60;88.50;;;;;;6308070;22;20168;-83
2021/08/09 19:16:56;;;;;;;3.70;2.70;;;17.50;89.30;;;;;;6309114;22;20190;-85
2021/08/09 19:22:31;;;;;;;3.47;2.70;;;17.30;90.00;;;;;;6311905;22;20271;-83
2021/08/09 19:25:08;;;;;;;4.97;3.30;;;17.20;90.10;;;;;;6324386;22;20183;-84
2021/08/09 19:27:42;;;;;;;4.23;3.47;;;17.20;90.60;;;;;;6320182;22;20186;-83
2021/08/09 19:30:14;;;;;;;5.90;3.60;;;17.10;91.00;;;;;;6311431;22;20179;-84
2021/08/09 19:32:47;;;;;;;5.57;3.53;;;17.00;91.30;;;;;;6320113;22;20164;-88
2021/08/09 19:35:18;;;;;;;5.30;3.60;;;16.90;91.10;;;;;;6305828;22;20171;-82
2021/08/09 19:37:55;;;;;;;5.60;3.40;;;16.80;91.40;;;;;;6322761;22;20184;-85
2021/08/09 19:40:30;;;;;;;6.60;3.77;;;16.80;92.00;;;;;;6324938;22;20164;-85
2021/08/09 19:43:06;;;;;;;5.27;3.73;;;16.70;92.30;;;;;;6319940;22;20579;-84
2021/08/09 19:45:39;;;;;;;5.23;3.63;;;16.80;92.70;;;;;;6324123;22;20203;-85
2021/08/09 19:48:13;;;;;;;7.00;4.10;;;16.60;92.70;;;;;;6317565;22;20568;-84
2021/08/09 19:50:43;;;;;;;4.87;3.97;;;16.50;93.30;;;;;;6307835;22;20175;-85
2021/08/09 19:53:14;;;;;;;7.27;4.20;;;16.50;93.10;;;;;;6323369;22;20231;-86
2021/08/09 19:55:46;;;;;;;6.47;4.20;;;16.40;93.60;;;;;;6311396;22;20183;-84
2021/08/09 19:58:22;;;;;;;6.03;4.20;;;16.30;93.90;;;;;;6309820;22;20179;-85
2021/08/09 20:00:59;;;;;;;8.50;4.10;;;16.40;94.30;;;;;;6319693;22;20175;-83
2021/08/09 20:03:34;;;;;;;5.90;4.57;;;16.20;95.00;;;;;;6309546;22;20179;-83
2021/08/09 20:06:04;;;;;;;6.93;4.60;;;16.10;95.00;;;;;;6327871;22;20639;-86
2021/08/09 20:08:37;;;;;;;12.63;5.37;;;16.10;95.50;;;;;;6328651;22;20179;-83
2021/08/09 20:11:12;;;;;;;8.80;4.73;;;16.00;95.50;;;;;;6330272;22;20575;-83
2021/08/09 20:13:51;;;;;;;5.73;4.13;;;15.90;96.30;;;;;;6338416;22;20178;-87
2021/08/09 20:16:24;;;;;;;8.43;4.70;;;15.90;96.30;;;;;;6336524;22;20827;-86
2021/08/09 20:18:56;;;;;;;6.67;4.60;;;15.80;97.30;;;;;;6313957;22;20205;-86
2021/08/09 20:24:15;;;;;;;9.97;6.37;;;15.80;98.80;;;;;;6277685;22;20176;-86
2021/08/09 20:26:51;;;;;;;6.93;5.13;;;15.80;98.70;;;;;;6316784;22;20171;-85
2021/08/09 20:29:24;;;;;;;9.90;5.17;;;15.70;98.40;;;;;;6311225;22;20165;-85
2021/08/09 20:31:54;;;;;;;7.73;5.27;;;15.70;98.50;;;;;;6317698;22;20169;-84
2021/08/09 20:34:24;;;;;;;10.97;5.47;;;15.60;99.20;;;;;;6276146;22;20172;-84
2021/08/09 20:36:54;;;;;;;9.70;5.57;;;15.50;99.90;;;;;;6310296;22;20268;-85
2021/08/09 20:39:27;;;;;;;10.17;5.63;;;15.50;99.90;;;;;;6300969;22;20262;-84